<?xml version="1.0" encoding="UTF-8" standalone="no" ?>
<gpx xmlns="http://www.topografix.com/GPX/1/1" xmlns:xsi="http://www.w3.org/2001/XMLSchema-instance" xsi:schemaLocation="http://www.topografix.com/GPX/1/1 http://www.topografix.com/GPX/1/1/gpx.xsd" version="1.1" creator="VisuGPX - https://www.visugpx.com">
  <metadata>
    <name>VacancesDricouZoe</name>
  </metadata>
  <trk>
    <name><![CDATA[Journal actif: 2021-07-07 13:54]]></name>
    <trkseg>
      <trkpt lat="43.78677" lon="-1.41191">
        <ele>5.91</ele>
        <time>2021-07-07T15:54:25Z</time>
      </trkpt>
      <trkpt lat="43.78743" lon="-1.41171">
        <ele>3.5</ele>
        <time>2021-07-07T15:54:42Z</time>
      </trkpt>
      <trkpt lat="43.78771" lon="-1.41162">
        <ele>3.98</ele>
        <time>2021-07-07T15:54:55Z</time>
      </trkpt>
      <trkpt lat="43.78793" lon="-1.41156">
        <ele>3.5</ele>
        <time>2021-07-07T15:55:05Z</time>
      </trkpt>
      <trkpt lat="43.78795" lon="-1.41155">
        <ele>3.5</ele>
        <time>2021-07-07T15:55:06Z</time>
      </trkpt>
      <trkpt lat="43.78803" lon="-1.41153">
        <ele>3.5</ele>
        <time>2021-07-07T15:55:07Z</time>
      </trkpt>
      <trkpt lat="43.78803" lon="-1.41153">
        <ele>3.02</ele>
        <time>2021-07-07T15:55:08Z</time>
      </trkpt>
      <trkpt lat="43.78786" lon="-1.41116">
        <ele>2.54</ele>
        <time>2021-07-07T15:55:10Z</time>
      </trkpt>
      <trkpt lat="43.78794" lon="-1.41114">
        <ele>2.06</ele>
        <time>2021-07-07T15:55:21Z</time>
      </trkpt>
      <trkpt lat="43.78822" lon="-1.41059">
        <ele>1.58</ele>
        <time>2021-07-07T15:55:34Z</time>
      </trkpt>
      <trkpt lat="43.78806" lon="-1.41025">
        <ele>0.14</ele>
        <time>2021-07-07T15:55:42Z</time>
      </trkpt>
      <trkpt lat="43.78757" lon="-1.40937">
        <ele>-2.75</ele>
        <time>2021-07-07T15:55:59Z</time>
      </trkpt>
      <trkpt lat="43.78749" lon="-1.40923">
        <ele>-2.75</ele>
        <time>2021-07-07T15:56:03Z</time>
      </trkpt>
      <trkpt lat="43.78749" lon="-1.40923">
        <ele>-2.75</ele>
        <time>2021-07-07T15:56:04Z</time>
      </trkpt>
      <trkpt lat="43.78754" lon="-1.40921">
        <ele>-2.75</ele>
        <time>2021-07-07T15:56:05Z</time>
      </trkpt>
      <trkpt lat="43.78814" lon="-1.40891">
        <ele>-2.75</ele>
        <time>2021-07-07T15:56:16Z</time>
      </trkpt>
      <trkpt lat="43.78845" lon="-1.40875">
        <ele>-2.27</ele>
        <time>2021-07-07T15:56:21Z</time>
      </trkpt>
      <trkpt lat="43.78849" lon="-1.40872">
        <ele>-2.27</ele>
        <time>2021-07-07T15:56:22Z</time>
      </trkpt>
      <trkpt lat="43.78861" lon="-1.40863">
        <ele>-1.79</ele>
        <time>2021-07-07T15:56:26Z</time>
      </trkpt>
      <trkpt lat="43.78871" lon="-1.40868">
        <ele>-1.3</ele>
        <time>2021-07-07T15:56:28Z</time>
      </trkpt>
      <trkpt lat="43.78875" lon="-1.40865">
        <ele>-1.3</ele>
        <time>2021-07-07T15:56:29Z</time>
      </trkpt>
      <trkpt lat="43.7888" lon="-1.40862">
        <ele>-1.3</ele>
        <time>2021-07-07T15:56:30Z</time>
      </trkpt>
      <trkpt lat="43.78943" lon="-1.40824">
        <ele>0.14</ele>
        <time>2021-07-07T15:56:39Z</time>
      </trkpt>
      <trkpt lat="43.78951" lon="-1.4082">
        <ele>0.62</ele>
        <time>2021-07-07T15:56:40Z</time>
      </trkpt>
      <trkpt lat="43.7896" lon="-1.40817">
        <ele>1.1</ele>
        <time>2021-07-07T15:56:41Z</time>
      </trkpt>
      <trkpt lat="43.78968" lon="-1.40814">
        <ele>2.06</ele>
        <time>2021-07-07T15:56:42Z</time>
      </trkpt>
      <trkpt lat="43.78977" lon="-1.40814">
        <ele>2.06</ele>
        <time>2021-07-07T15:56:43Z</time>
      </trkpt>
      <trkpt lat="43.78988" lon="-1.40815">
        <ele>3.02</ele>
        <time>2021-07-07T15:56:44Z</time>
      </trkpt>
      <trkpt lat="43.79" lon="-1.40815">
        <ele>3.5</ele>
        <time>2021-07-07T15:56:45Z</time>
      </trkpt>
      <trkpt lat="43.79104" lon="-1.40819">
        <ele>2.06</ele>
        <time>2021-07-07T15:56:57Z</time>
      </trkpt>
      <trkpt lat="43.79111" lon="-1.40817">
        <ele>1.58</ele>
        <time>2021-07-07T15:56:58Z</time>
      </trkpt>
      <trkpt lat="43.79159" lon="-1.40791">
        <ele>0.62</ele>
        <time>2021-07-07T15:57:06Z</time>
      </trkpt>
      <trkpt lat="43.79164" lon="-1.40788">
        <ele>0.62</ele>
        <time>2021-07-07T15:57:07Z</time>
      </trkpt>
      <trkpt lat="43.79174" lon="-1.40779">
        <ele>0.62</ele>
        <time>2021-07-07T15:57:11Z</time>
      </trkpt>
      <trkpt lat="43.79176" lon="-1.40778">
        <ele>0.14</ele>
        <time>2021-07-07T15:57:12Z</time>
      </trkpt>
      <trkpt lat="43.79176" lon="-1.40777">
        <ele>0.14</ele>
        <time>2021-07-07T15:57:13Z</time>
      </trkpt>
      <trkpt lat="43.79177" lon="-1.40781">
        <ele>0.14</ele>
        <time>2021-07-07T15:57:14Z</time>
      </trkpt>
      <trkpt lat="43.79179" lon="-1.40785">
        <ele>-0.34</ele>
        <time>2021-07-07T15:57:15Z</time>
      </trkpt>
      <trkpt lat="43.7918" lon="-1.4079">
        <ele>-0.82</ele>
        <time>2021-07-07T15:57:16Z</time>
      </trkpt>
      <trkpt lat="43.79207" lon="-1.40874">
        <ele>0.62</ele>
        <time>2021-07-07T15:57:27Z</time>
      </trkpt>
      <trkpt lat="43.79234" lon="-1.40964">
        <ele>5.91</ele>
        <time>2021-07-07T15:57:39Z</time>
      </trkpt>
      <trkpt lat="43.79243" lon="-1.40971">
        <ele>5.91</ele>
        <time>2021-07-07T15:57:42Z</time>
      </trkpt>
      <trkpt lat="43.79241" lon="-1.40983">
        <ele>5.91</ele>
        <time>2021-07-07T15:57:43Z</time>
      </trkpt>
      <trkpt lat="43.79241" lon="-1.40983">
        <ele>5.91</ele>
        <time>2021-07-07T15:57:44Z</time>
      </trkpt>
      <trkpt lat="43.79237" lon="-1.40985">
        <ele>5.42</ele>
        <time>2021-07-07T15:57:45Z</time>
      </trkpt>
      <trkpt lat="43.79236" lon="-1.40986">
        <ele>5.42</ele>
        <time>2021-07-07T15:57:46Z</time>
      </trkpt>
      <trkpt lat="43.79233" lon="-1.40981">
        <ele>5.42</ele>
        <time>2021-07-07T15:57:47Z</time>
      </trkpt>
      <trkpt lat="43.79228" lon="-1.40978">
        <ele>5.42</ele>
        <time>2021-07-07T15:57:48Z</time>
      </trkpt>
      <trkpt lat="43.79225" lon="-1.40979">
        <ele>5.42</ele>
        <time>2021-07-07T15:57:49Z</time>
      </trkpt>
      <trkpt lat="43.79216" lon="-1.40982">
        <ele>5.91</ele>
        <time>2021-07-07T15:57:50Z</time>
      </trkpt>
      <trkpt lat="43.7915" lon="-1.41007">
        <ele>4.46</ele>
        <time>2021-07-07T15:58:01Z</time>
      </trkpt>
      <trkpt lat="43.79025" lon="-1.41039">
        <ele>-1.3</ele>
        <time>2021-07-07T15:58:19Z</time>
      </trkpt>
      <trkpt lat="43.78982" lon="-1.41049">
        <ele>0.62</ele>
        <time>2021-07-07T15:58:28Z</time>
      </trkpt>
      <trkpt lat="43.78978" lon="-1.4105">
        <ele>0.62</ele>
        <time>2021-07-07T15:58:30Z</time>
      </trkpt>
      <trkpt lat="43.78977" lon="-1.4105">
        <ele>0.14</ele>
        <time>2021-07-07T15:58:31Z</time>
      </trkpt>
      <trkpt lat="43.78977" lon="-1.4105">
        <ele>0.14</ele>
        <time>2021-07-07T15:58:32Z</time>
      </trkpt>
      <trkpt lat="43.78976" lon="-1.41048">
        <ele>0.14</ele>
        <time>2021-07-07T15:58:33Z</time>
      </trkpt>
      <trkpt lat="43.78976" lon="-1.41045">
        <ele>-0.34</ele>
        <time>2021-07-07T15:58:34Z</time>
      </trkpt>
      <trkpt lat="43.78975" lon="-1.41041">
        <ele>-0.34</ele>
        <time>2021-07-07T15:58:35Z</time>
      </trkpt>
      <trkpt lat="43.78975" lon="-1.41037">
        <ele>-0.82</ele>
        <time>2021-07-07T15:58:36Z</time>
      </trkpt>
      <trkpt lat="43.78975" lon="-1.41034">
        <ele>-1.3</ele>
        <time>2021-07-07T15:58:37Z</time>
      </trkpt>
      <trkpt lat="43.78987" lon="-1.40959">
        <ele>-3.71</ele>
        <time>2021-07-07T15:58:50Z</time>
      </trkpt>
      <trkpt lat="43.78987" lon="-1.40955">
        <ele>-3.71</ele>
        <time>2021-07-07T15:58:51Z</time>
      </trkpt>
      <trkpt lat="43.78984" lon="-1.40951">
        <ele>-4.19</ele>
        <time>2021-07-07T15:58:52Z</time>
      </trkpt>
      <trkpt lat="43.7898" lon="-1.40948">
        <ele>-4.19</ele>
        <time>2021-07-07T15:58:53Z</time>
      </trkpt>
      <trkpt lat="43.78976" lon="-1.40946">
        <ele>-4.67</ele>
        <time>2021-07-07T15:58:54Z</time>
      </trkpt>
      <trkpt lat="43.78913" lon="-1.40892">
        <ele>-7.55</ele>
        <time>2021-07-07T15:59:08Z</time>
      </trkpt>
      <trkpt lat="43.78894" lon="-1.40865">
        <ele>-8.03</ele>
        <time>2021-07-07T15:59:14Z</time>
      </trkpt>
      <trkpt lat="43.78887" lon="-1.40869">
        <ele>-8.03</ele>
        <time>2021-07-07T15:59:15Z</time>
      </trkpt>
      <trkpt lat="43.78884" lon="-1.40872">
        <ele>-8.03</ele>
        <time>2021-07-07T15:59:16Z</time>
      </trkpt>
      <trkpt lat="43.78878" lon="-1.40879">
        <ele>-8.51</ele>
        <time>2021-07-07T15:59:17Z</time>
      </trkpt>
      <trkpt lat="43.78875" lon="-1.40881">
        <ele>-9</ele>
        <time>2021-07-07T15:59:18Z</time>
      </trkpt>
      <trkpt lat="43.78875" lon="-1.40881">
        <ele>-9</ele>
        <time>2021-07-07T15:59:19Z</time>
      </trkpt>
      <trkpt lat="43.78871" lon="-1.40878">
        <ele>-9</ele>
        <time>2021-07-07T15:59:20Z</time>
      </trkpt>
      <trkpt lat="43.78865" lon="-1.40867">
        <ele>-9.48</ele>
        <time>2021-07-07T15:59:21Z</time>
      </trkpt>
      <trkpt lat="43.78865" lon="-1.40867">
        <ele>-9.48</ele>
        <time>2021-07-07T15:59:22Z</time>
      </trkpt>
      <trkpt lat="43.78856" lon="-1.40867">
        <ele>-9.48</ele>
        <time>2021-07-07T15:59:23Z</time>
      </trkpt>
      <trkpt lat="43.78852" lon="-1.4087">
        <ele>-9.48</ele>
        <time>2021-07-07T15:59:24Z</time>
      </trkpt>
      <trkpt lat="43.78847" lon="-1.40873">
        <ele>-9.96</ele>
        <time>2021-07-07T15:59:25Z</time>
      </trkpt>
      <trkpt lat="43.78772" lon="-1.40912">
        <ele>-6.11</ele>
        <time>2021-07-07T15:59:37Z</time>
      </trkpt>
      <trkpt lat="43.78753" lon="-1.40921">
        <ele>-5.63</ele>
        <time>2021-07-07T15:59:40Z</time>
      </trkpt>
      <trkpt lat="43.78753" lon="-1.40921">
        <ele>-6.11</ele>
        <time>2021-07-07T15:59:41Z</time>
      </trkpt>
      <trkpt lat="43.78748" lon="-1.40916">
        <ele>-6.11</ele>
        <time>2021-07-07T15:59:42Z</time>
      </trkpt>
      <trkpt lat="43.78748" lon="-1.40916">
        <ele>-6.11</ele>
        <time>2021-07-07T15:59:43Z</time>
      </trkpt>
      <trkpt lat="43.78747" lon="-1.40902">
        <ele>-6.59</ele>
        <time>2021-07-07T15:59:44Z</time>
      </trkpt>
      <trkpt lat="43.78736" lon="-1.40809">
        <ele>-7.55</ele>
        <time>2021-07-07T15:59:53Z</time>
      </trkpt>
      <trkpt lat="43.78718" lon="-1.40664">
        <ele>-8.03</ele>
        <time>2021-07-07T16:00:05Z</time>
      </trkpt>
      <trkpt lat="43.78711" lon="-1.40554">
        <ele>-7.07</ele>
        <time>2021-07-07T16:00:16Z</time>
      </trkpt>
      <trkpt lat="43.78687" lon="-1.40409">
        <ele>-9</ele>
        <time>2021-07-07T16:00:28Z</time>
      </trkpt>
      <trkpt lat="43.78674" lon="-1.40269">
        <ele>-7.55</ele>
        <time>2021-07-07T16:00:41Z</time>
      </trkpt>
      <trkpt lat="43.78667" lon="-1.40213">
        <ele>-6.59</ele>
        <time>2021-07-07T16:00:50Z</time>
      </trkpt>
      <trkpt lat="43.78667" lon="-1.40213">
        <ele>-6.59</ele>
        <time>2021-07-07T16:00:51Z</time>
      </trkpt>
      <trkpt lat="43.78671" lon="-1.40212">
        <ele>-6.59</ele>
        <time>2021-07-07T16:00:52Z</time>
      </trkpt>
      <trkpt lat="43.78675" lon="-1.40211">
        <ele>-6.11</ele>
        <time>2021-07-07T16:00:53Z</time>
      </trkpt>
      <trkpt lat="43.7868" lon="-1.4021">
        <ele>-6.11</ele>
        <time>2021-07-07T16:00:54Z</time>
      </trkpt>
      <trkpt lat="43.78737" lon="-1.40198">
        <ele>-4.19</ele>
        <time>2021-07-07T16:01:06Z</time>
      </trkpt>
      <trkpt lat="43.78739" lon="-1.40198">
        <ele>-4.67</ele>
        <time>2021-07-07T16:01:07Z</time>
      </trkpt>
      <trkpt lat="43.78746" lon="-1.40187">
        <ele>-4.67</ele>
        <time>2021-07-07T16:01:08Z</time>
      </trkpt>
      <trkpt lat="43.78741" lon="-1.40148">
        <ele>-3.71</ele>
        <time>2021-07-07T16:01:20Z</time>
      </trkpt>
      <trkpt lat="43.78741" lon="-1.40148">
        <ele>-3.71</ele>
        <time>2021-07-07T16:01:28Z</time>
      </trkpt>
      <trkpt lat="43.78741" lon="-1.40147">
        <ele>-3.71</ele>
        <time>2021-07-07T16:01:29Z</time>
      </trkpt>
      <trkpt lat="43.78734" lon="-1.40147">
        <ele>-3.71</ele>
        <time>2021-07-07T16:01:30Z</time>
      </trkpt>
      <trkpt lat="43.787" lon="-1.40155">
        <ele>-3.71</ele>
        <time>2021-07-07T16:01:40Z</time>
      </trkpt>
      <trkpt lat="43.78697" lon="-1.40156">
        <ele>-3.71</ele>
        <time>2021-07-07T16:01:41Z</time>
      </trkpt>
      <trkpt lat="43.787" lon="-1.40156">
        <ele>-3.71</ele>
        <time>2021-07-07T16:01:42Z</time>
      </trkpt>
      <trkpt lat="43.78706" lon="-1.40198">
        <ele>-3.71</ele>
        <time>2021-07-07T16:01:55Z</time>
      </trkpt>
      <trkpt lat="43.78706" lon="-1.40198">
        <ele>-3.23</ele>
        <time>2021-07-07T16:01:59Z</time>
      </trkpt>
      <trkpt lat="43.78706" lon="-1.40205">
        <ele>-3.23</ele>
        <time>2021-07-07T16:02:00Z</time>
      </trkpt>
      <trkpt lat="43.78706" lon="-1.40204">
        <ele>-3.71</ele>
        <time>2021-07-07T16:02:01Z</time>
      </trkpt>
      <trkpt lat="43.78709" lon="-1.40204">
        <ele>-3.71</ele>
        <time>2021-07-07T16:02:02Z</time>
      </trkpt>
      <trkpt lat="43.78716" lon="-1.40202">
        <ele>-3.71</ele>
        <time>2021-07-07T16:02:03Z</time>
      </trkpt>
      <trkpt lat="43.78716" lon="-1.40202">
        <ele>-3.71</ele>
        <time>2021-07-07T16:02:04Z</time>
      </trkpt>
      <trkpt lat="43.7872" lon="-1.40202">
        <ele>-4.19</ele>
        <time>2021-07-07T16:02:05Z</time>
      </trkpt>
      <trkpt lat="43.78794" lon="-1.40182">
        <ele>-3.71</ele>
        <time>2021-07-07T16:02:18Z</time>
      </trkpt>
      <trkpt lat="43.78799" lon="-1.40181">
        <ele>-3.71</ele>
        <time>2021-07-07T16:02:19Z</time>
      </trkpt>
      <trkpt lat="43.78803" lon="-1.40179">
        <ele>-3.71</ele>
        <time>2021-07-07T16:02:20Z</time>
      </trkpt>
      <trkpt lat="43.78808" lon="-1.40175">
        <ele>-3.71</ele>
        <time>2021-07-07T16:02:21Z</time>
      </trkpt>
      <trkpt lat="43.78812" lon="-1.40169">
        <ele>-3.71</ele>
        <time>2021-07-07T16:02:22Z</time>
      </trkpt>
      <trkpt lat="43.78814" lon="-1.40164">
        <ele>-3.71</ele>
        <time>2021-07-07T16:02:23Z</time>
      </trkpt>
      <trkpt lat="43.78817" lon="-1.40159">
        <ele>-3.71</ele>
        <time>2021-07-07T16:02:24Z</time>
      </trkpt>
      <trkpt lat="43.78819" lon="-1.40154">
        <ele>-3.71</ele>
        <time>2021-07-07T16:02:25Z</time>
      </trkpt>
      <trkpt lat="43.78821" lon="-1.40149">
        <ele>-3.71</ele>
        <time>2021-07-07T16:02:26Z</time>
      </trkpt>
      <trkpt lat="43.78822" lon="-1.40141">
        <ele>-3.23</ele>
        <time>2021-07-07T16:02:27Z</time>
      </trkpt>
      <trkpt lat="43.78822" lon="-1.40136">
        <ele>-3.23</ele>
        <time>2021-07-07T16:02:28Z</time>
      </trkpt>
      <trkpt lat="43.78823" lon="-1.4013">
        <ele>-2.75</ele>
        <time>2021-07-07T16:02:29Z</time>
      </trkpt>
      <trkpt lat="43.78829" lon="-1.40132">
        <ele>-2.75</ele>
        <time>2021-07-07T16:02:30Z</time>
      </trkpt>
      <trkpt lat="43.78834" lon="-1.40131">
        <ele>-2.75</ele>
        <time>2021-07-07T16:02:31Z</time>
      </trkpt>
      <trkpt lat="43.78839" lon="-1.4013">
        <ele>-2.75</ele>
        <time>2021-07-07T16:02:32Z</time>
      </trkpt>
      <trkpt lat="43.78922" lon="-1.4011">
        <ele>-2.27</ele>
        <time>2021-07-07T16:02:47Z</time>
      </trkpt>
      <trkpt lat="43.78948" lon="-1.40096">
        <ele>-0.34</ele>
        <time>2021-07-07T16:02:55Z</time>
      </trkpt>
      <trkpt lat="43.78949" lon="-1.4009">
        <ele>-0.34</ele>
        <time>2021-07-07T16:02:56Z</time>
      </trkpt>
      <trkpt lat="43.7895" lon="-1.40084">
        <ele>-0.34</ele>
        <time>2021-07-07T16:02:57Z</time>
      </trkpt>
      <trkpt lat="43.78951" lon="-1.40079">
        <ele>-0.82</ele>
        <time>2021-07-07T16:02:58Z</time>
      </trkpt>
      <trkpt lat="43.7895" lon="-1.40074">
        <ele>-0.34</ele>
        <time>2021-07-07T16:02:59Z</time>
      </trkpt>
      <trkpt lat="43.78945" lon="-1.40047">
        <ele>-1.79</ele>
        <time>2021-07-07T16:03:04Z</time>
      </trkpt>
      <trkpt lat="43.78944" lon="-1.40046">
        <ele>-1.79</ele>
        <time>2021-07-07T16:03:05Z</time>
      </trkpt>
      <trkpt lat="43.78941" lon="-1.40022">
        <ele>-2.27</ele>
        <time>2021-07-07T16:03:08Z</time>
      </trkpt>
      <trkpt lat="43.7892" lon="-1.39923">
        <ele>-3.23</ele>
        <time>2021-07-07T16:03:17Z</time>
      </trkpt>
      <trkpt lat="43.78874" lon="-1.3973">
        <ele>-5.15</ele>
        <time>2021-07-07T16:03:33Z</time>
      </trkpt>
      <trkpt lat="43.78861" lon="-1.39689">
        <ele>-6.11</ele>
        <time>2021-07-07T16:03:40Z</time>
      </trkpt>
      <trkpt lat="43.78856" lon="-1.39671">
        <ele>-6.59</ele>
        <time>2021-07-07T16:03:48Z</time>
      </trkpt>
      <trkpt lat="43.78854" lon="-1.39666">
        <ele>-7.07</ele>
        <time>2021-07-07T16:03:49Z</time>
      </trkpt>
      <trkpt lat="43.78843" lon="-1.39661">
        <ele>-7.07</ele>
        <time>2021-07-07T16:03:50Z</time>
      </trkpt>
      <trkpt lat="43.78843" lon="-1.39661">
        <ele>-7.55</ele>
        <time>2021-07-07T16:03:51Z</time>
      </trkpt>
      <trkpt lat="43.78842" lon="-1.39662">
        <ele>-7.55</ele>
        <time>2021-07-07T16:03:52Z</time>
      </trkpt>
      <trkpt lat="43.78832" lon="-1.39658">
        <ele>-7.55</ele>
        <time>2021-07-07T16:03:53Z</time>
      </trkpt>
      <trkpt lat="43.78827" lon="-1.39663">
        <ele>-8.03</ele>
        <time>2021-07-07T16:03:54Z</time>
      </trkpt>
      <trkpt lat="43.78758" lon="-1.39718">
        <ele>-10.92</ele>
        <time>2021-07-07T16:04:03Z</time>
      </trkpt>
      <trkpt lat="43.78683" lon="-1.39748">
        <ele>-9.96</ele>
        <time>2021-07-07T16:04:15Z</time>
      </trkpt>
      <trkpt lat="43.78604" lon="-1.3978">
        <ele>-7.07</ele>
        <time>2021-07-07T16:04:28Z</time>
      </trkpt>
      <trkpt lat="43.78524" lon="-1.39812">
        <ele>-5.15</ele>
        <time>2021-07-07T16:04:43Z</time>
      </trkpt>
      <trkpt lat="43.78449" lon="-1.39821">
        <ele>-4.67</ele>
        <time>2021-07-07T16:04:56Z</time>
      </trkpt>
      <trkpt lat="43.78305" lon="-1.3984">
        <ele>-4.19</ele>
        <time>2021-07-07T16:05:13Z</time>
      </trkpt>
      <trkpt lat="43.78199" lon="-1.39853">
        <ele>-7.07</ele>
        <time>2021-07-07T16:05:23Z</time>
      </trkpt>
      <trkpt lat="43.78181" lon="-1.39855">
        <ele>-6.59</ele>
        <time>2021-07-07T16:05:25Z</time>
      </trkpt>
      <trkpt lat="43.78162" lon="-1.39858">
        <ele>-7.07</ele>
        <time>2021-07-07T16:05:26Z</time>
      </trkpt>
      <trkpt lat="43.7808" lon="-1.39858">
        <ele>-8.51</ele>
        <time>2021-07-07T16:05:35Z</time>
      </trkpt>
      <trkpt lat="43.78058" lon="-1.39851">
        <ele>-9</ele>
        <time>2021-07-07T16:05:36Z</time>
      </trkpt>
      <trkpt lat="43.78058" lon="-1.39851">
        <ele>-8.51</ele>
        <time>2021-07-07T16:05:37Z</time>
      </trkpt>
      <trkpt lat="43.77973" lon="-1.39808">
        <ele>-11.88</ele>
        <time>2021-07-07T16:05:47Z</time>
      </trkpt>
      <trkpt lat="43.77937" lon="-1.39799">
        <ele>-14.76</ele>
        <time>2021-07-07T16:05:55Z</time>
      </trkpt>
      <trkpt lat="43.77927" lon="-1.398">
        <ele>-16.21</ele>
        <time>2021-07-07T16:05:58Z</time>
      </trkpt>
      <trkpt lat="43.77923" lon="-1.39802">
        <ele>-16.21</ele>
        <time>2021-07-07T16:05:59Z</time>
      </trkpt>
      <trkpt lat="43.77918" lon="-1.39805">
        <ele>-17.17</ele>
        <time>2021-07-07T16:06:00Z</time>
      </trkpt>
      <trkpt lat="43.77916" lon="-1.3981">
        <ele>-16.69</ele>
        <time>2021-07-07T16:06:01Z</time>
      </trkpt>
      <trkpt lat="43.77914" lon="-1.39816">
        <ele>-16.69</ele>
        <time>2021-07-07T16:06:02Z</time>
      </trkpt>
      <trkpt lat="43.77911" lon="-1.39822">
        <ele>-16.69</ele>
        <time>2021-07-07T16:06:03Z</time>
      </trkpt>
      <trkpt lat="43.77908" lon="-1.3983">
        <ele>-16.69</ele>
        <time>2021-07-07T16:06:04Z</time>
      </trkpt>
      <trkpt lat="43.77907" lon="-1.39839">
        <ele>-16.69</ele>
        <time>2021-07-07T16:06:05Z</time>
      </trkpt>
    </trkseg>
  </trk>
</gpx>